sensor_id;sensor_type;location;lat;lon;timestamp;P1;durP1;ratioP1;P2;durP2;ratioP2
80836;SDS011;70251;60.008;30.404;2023-05-29T00:01:28;2.88;;;0.35;;
80836;SDS011;70251;60.008;30.404;2023-05-29T00:03:53;3.53;;;0.27;;
80836;SDS011;70251;60.008;30.404;2023-05-29T00:06:20;3.03;;;0.50;;
80836;SDS011;70251;60.008;30.404;2023-05-29T00:08:45;3.40;;;0.33;;
80836;SDS011;70251;60.008;30.404;2023-05-29T00:11:11;4.47;;;0.32;;
80836;SDS011;70251;60.008;30.404;2023-05-29T00:13:36;2.27;;;0.30;;
80836;SDS011;70251;60.008;30.404;2023-05-29T00:16:01;2.67;;;0.40;;
80836;SDS011;70251;60.008;30.404;2023-05-29T00:18:28;3.30;;;0.57;;
80836;SDS011;70251;60.008;30.404;2023-05-29T00:20:54;2.77;;;0.40;;
80836;SDS011;70251;60.008;30.404;2023-05-29T00:23:21;7.03;;;0.77;;
80836;SDS011;70251;60.008;30.404;2023-05-29T00:25:49;3.03;;;0.20;;
80836;SDS011;70251;60.008;30.404;2023-05-29T00:28:14;2.63;;;0.27;;
80836;SDS011;70251;60.008;30.404;2023-05-29T00:30:40;2.13;;;0.30;;
80836;SDS011;70251;60.008;30.404;2023-05-29T00:33:08;2.17;;;0.30;;
80836;SDS011;70251;60.008;30.404;2023-05-29T00:35:33;6.30;;;0.60;;
80836;SDS011;70251;60.008;30.404;2023-05-29T00:37:59;3.08;;;0.38;;
80836;SDS011;70251;60.008;30.404;2023-05-29T00:40:25;3.90;;;0.40;;
80836;SDS011;70251;60.008;30.404;2023-05-29T00:42:53;3.72;;;0.40;;
80836;SDS011;70251;60.008;30.404;2023-05-29T00:45:18;4.73;;;0.50;;
80836;SDS011;70251;60.008;30.404;2023-05-29T00:47:44;2.97;;;0.50;;
80836;SDS011;70251;60.008;30.404;2023-05-29T00:50:11;3.90;;;0.40;;
80836;SDS011;70251;60.008;30.404;2023-05-29T00:52:39;4.65;;;0.47;;
80836;SDS011;70251;60.008;30.404;2023-05-29T00:55:06;5.47;;;0.40;;
80836;SDS011;70251;60.008;30.404;2023-05-29T00:57:34;3.75;;;0.40;;
80836;SDS011;70251;60.008;30.404;2023-05-29T01:00:02;3.67;;;0.47;;
80836;SDS011;70251;60.008;30.404;2023-05-29T01:02:34;5.13;;;0.60;;
80836;SDS011;70251;60.008;30.404;2023-05-29T01:05:01;3.45;;;0.40;;
80836;SDS011;70251;60.008;30.404;2023-05-29T01:07:27;3.83;;;0.47;;
80836;SDS011;70251;60.008;30.404;2023-05-29T01:09:52;6.13;;;0.70;;
80836;SDS011;70251;60.008;30.404;2023-05-29T01:28:51;4.85;;;0.43;;
80836;SDS011;70251;60.008;30.404;2023-05-29T01:31:23;2.70;;;0.47;;
80836;SDS011;70251;60.008;30.404;2023-05-29T01:33:54;2.83;;;0.47;;
80836;SDS011;70251;60.008;30.404;2023-05-29T01:36:21;3.72;;;0.50;;
80836;SDS011;70251;60.008;30.404;2023-05-29T01:38:47;3.70;;;0.90;;
80836;SDS011;70251;60.008;30.404;2023-05-29T01:41:19;6.65;;;0.60;;
80836;SDS011;70251;60.008;30.404;2023-05-29T01:43:53;6.85;;;0.47;;
80836;SDS011;70251;60.008;30.404;2023-05-29T01:46:21;4.73;;;0.40;;
80836;SDS011;70251;60.008;30.404;2023-05-29T01:48:47;4.38;;;0.50;;
80836;SDS011;70251;60.008;30.404;2023-05-29T01:51:13;4.18;;;0.57;;
80836;SDS011;70251;60.008;30.404;2023-05-29T01:53:39;3.17;;;0.50;;
80836;SDS011;70251;60.008;30.404;2023-05-29T01:56:06;6.25;;;0.68;;
80836;SDS011;70251;60.008;30.404;2023-05-29T01:58:33;4.20;;;0.50;;
80836;SDS011;70251;60.008;30.404;2023-05-29T02:01:02;5.10;;;0.70;;
80836;SDS011;70251;60.008;30.404;2023-05-29T02:03:31;4.35;;;0.50;;
80836;SDS011;70251;60.008;30.404;2023-05-29T02:05:57;3.92;;;0.50;;
80836;SDS011;70251;60.008;30.404;2023-05-29T02:08:23;3.45;;;0.40;;
80836;SDS011;70251;60.008;30.404;2023-05-29T02:10:48;3.97;;;0.43;;
80836;SDS011;70251;60.008;30.404;2023-05-29T02:13:14;4.53;;;0.50;;
80836;SDS011;70251;60.008;30.404;2023-05-29T02:15:40;4.38;;;0.47;;
80836;SDS011;70251;60.008;30.404;2023-05-29T02:18:07;3.87;;;0.40;;
80836;SDS011;70251;60.008;30.404;2023-05-29T02:20:37;4.82;;;0.57;;
80836;SDS011;70251;60.008;30.404;2023-05-29T02:23:02;4.57;;;0.40;;
80836;SDS011;70251;60.008;30.404;2023-05-29T02:25:28;4.10;;;0.60;;
80836;SDS011;70251;60.008;30.404;2023-05-29T02:27:53;4.03;;;0.50;;
80836;SDS011;70251;60.008;30.404;2023-05-29T02:30:19;5.88;;;0.50;;
80836;SDS011;70251;60.008;30.404;2023-05-29T02:32:44;4.97;;;0.40;;
80836;SDS011;70251;60.008;30.404;2023-05-29T02:35:10;3.20;;;0.50;;
80836;SDS011;70251;60.008;30.404;2023-05-29T02:37:38;4.53;;;0.63;;
80836;SDS011;70251;60.008;30.404;2023-05-29T02:40:04;6.82;;;0.80;;
80836;SDS011;70251;60.008;30.404;2023-05-29T02:42:34;5.50;;;0.80;;
80836;SDS011;70251;60.008;30.404;2023-05-29T02:45:00;4.03;;;0.70;;
80836;SDS011;70251;60.008;30.404;2023-05-29T02:47:25;5.53;;;0.82;;
80836;SDS011;70251;60.008;30.404;2023-05-29T02:49:51;5.80;;;0.60;;
80836;SDS011;70251;60.008;30.404;2023-05-29T02:52:16;7.90;;;1.07;;
80836;SDS011;70251;60.008;30.404;2023-05-29T02:54:42;6.43;;;1.10;;
80836;SDS011;70251;60.008;30.404;2023-05-29T02:57:07;5.60;;;0.90;;
80836;SDS011;70251;60.008;30.404;2023-05-29T02:59:33;5.70;;;0.80;;
80836;SDS011;70251;60.008;30.404;2023-05-29T03:01:58;6.63;;;0.88;;
80836;SDS011;70251;60.008;30.404;2023-05-29T03:04:24;6.47;;;0.90;;
80836;SDS011;70251;60.008;30.404;2023-05-29T03:06:49;8.57;;;0.90;;
80836;SDS011;70251;60.008;30.404;2023-05-29T03:09:15;4.35;;;1.02;;
80836;SDS011;70251;60.008;30.404;2023-05-29T03:11:42;6.23;;;0.97;;
80836;SDS011;70251;60.008;30.404;2023-05-29T03:14:09;5.38;;;0.82;;
80836;SDS011;70251;60.008;30.404;2023-05-29T03:16:35;6.97;;;0.90;;
80836;SDS011;70251;60.008;30.404;2023-05-29T03:19:01;6.07;;;0.80;;
80836;SDS011;70251;60.008;30.404;2023-05-29T03:21:27;4.68;;;0.70;;
80836;SDS011;70251;60.008;30.404;2023-05-29T03:23:59;8.38;;;1.00;;
80836;SDS011;70251;60.008;30.404;2023-05-29T03:26:25;6.68;;;1.10;;
80836;SDS011;70251;60.008;30.404;2023-05-29T03:28:51;6.00;;;1.27;;
80836;SDS011;70251;60.008;30.404;2023-05-29T03:31:17;5.93;;;1.00;;
80836;SDS011;70251;60.008;30.404;2023-05-29T03:33:42;6.03;;;1.03;;
80836;SDS011;70251;60.008;30.404;2023-05-29T03:36:08;7.20;;;0.90;;
80836;SDS011;70251;60.008;30.404;2023-05-29T03:38:36;9.15;;;1.17;;
80836;SDS011;70251;60.008;30.404;2023-05-29T03:41:02;9.10;;;1.40;;
80836;SDS011;70251;60.008;30.404;2023-05-29T03:43:28;5.60;;;0.90;;
80836;SDS011;70251;60.008;30.404;2023-05-29T03:45:55;6.53;;;1.15;;
80836;SDS011;70251;60.008;30.404;2023-05-29T03:48:20;8.50;;;0.95;;
80836;SDS011;70251;60.008;30.404;2023-05-29T03:50:46;8.23;;;1.37;;
80836;SDS011;70251;60.008;30.404;2023-05-29T03:53:12;6.78;;;1.23;;
80836;SDS011;70251;60.008;30.404;2023-05-29T03:55:40;8.52;;;1.02;;
80836;SDS011;70251;60.008;30.404;2023-05-29T03:58:06;7.60;;;1.37;;
80836;SDS011;70251;60.008;30.404;2023-05-29T04:00:32;6.13;;;1.40;;
80836;SDS011;70251;60.008;30.404;2023-05-29T04:02:57;7.47;;;1.40;;
80836;SDS011;70251;60.008;30.404;2023-05-29T04:05:23;7.83;;;1.30;;
80836;SDS011;70251;60.008;30.404;2023-05-29T04:07:51;8.48;;;1.55;;
80836;SDS011;70251;60.008;30.404;2023-05-29T04:10:17;6.73;;;1.20;;
80836;SDS011;70251;60.008;30.404;2023-05-29T04:12:42;8.10;;;1.35;;
80836;SDS011;70251;60.008;30.404;2023-05-29T04:15:10;6.10;;;1.20;;
80836;SDS011;70251;60.008;30.404;2023-05-29T04:17:37;7.82;;;1.33;;
80836;SDS011;70251;60.008;30.404;2023-05-29T04:20:02;6.83;;;1.30;;
80836;SDS011;70251;60.008;30.404;2023-05-29T04:22:34;8.95;;;1.10;;
80836;SDS011;70251;60.008;30.404;2023-05-29T04:25:01;7.93;;;1.20;;
80836;SDS011;70251;60.008;30.404;2023-05-29T04:27:29;9.52;;;1.80;;
80836;SDS011;70251;60.008;30.404;2023-05-29T04:29:55;5.30;;;1.00;;
80836;SDS011;70251;60.008;30.404;2023-05-29T04:32:21;6.80;;;1.27;;
80836;SDS011;70251;60.008;30.404;2023-05-29T04:34:46;6.95;;;1.25;;
80836;SDS011;70251;60.008;30.404;2023-05-29T04:37:12;6.32;;;1.60;;
80836;SDS011;70251;60.008;30.404;2023-05-29T04:39:38;10.43;;;1.63;;
80836;SDS011;70251;60.008;30.404;2023-05-29T04:42:04;11.05;;;1.25;;
80836;SDS011;70251;60.008;30.404;2023-05-29T04:44:30;7.05;;;1.30;;
80836;SDS011;70251;60.008;30.404;2023-05-29T04:46:55;5.20;;;1.00;;
80836;SDS011;70251;60.008;30.404;2023-05-29T04:49:24;6.95;;;1.20;;
80836;SDS011;70251;60.008;30.404;2023-05-29T04:51:49;7.33;;;1.30;;
80836;SDS011;70251;60.008;30.404;2023-05-29T04:54:18;6.90;;;1.38;;
80836;SDS011;70251;60.008;30.404;2023-05-29T04:56:47;10.38;;;1.27;;
80836;SDS011;70251;60.008;30.404;2023-05-29T04:59:13;6.65;;;1.55;;
80836;SDS011;70251;60.008;30.404;2023-05-29T05:01:38;6.80;;;1.40;;
80836;SDS011;70251;60.008;30.404;2023-05-29T05:04:13;7.68;;;1.50;;
80836;SDS011;70251;60.008;30.404;2023-05-29T05:06:38;6.37;;;1.50;;
80836;SDS011;70251;60.008;30.404;2023-05-29T05:09:04;4.10;;;1.13;;
80836;SDS011;70251;60.008;30.404;2023-05-29T05:11:29;5.93;;;1.50;;
80836;SDS011;70251;60.008;30.404;2023-05-29T05:13:55;8.53;;;1.60;;
80836;SDS011;70251;60.008;30.404;2023-05-29T05:16:20;7.10;;;1.40;;
80836;SDS011;70251;60.008;30.404;2023-05-29T05:18:49;8.07;;;1.30;;
80836;SDS011;70251;60.008;30.404;2023-05-29T05:21:14;6.88;;;1.90;;
80836;SDS011;70251;60.008;30.404;2023-05-29T05:23:40;6.83;;;1.40;;
80836;SDS011;70251;60.008;30.404;2023-05-29T05:26:05;10.93;;;1.37;;
80836;SDS011;70251;60.008;30.404;2023-05-29T05:28:31;7.33;;;1.27;;
80836;SDS011;70251;60.008;30.404;2023-05-29T05:30:57;8.77;;;1.37;;
80836;SDS011;70251;60.008;30.404;2023-05-29T05:33:22;10.02;;;1.85;;
80836;SDS011;70251;60.008;30.404;2023-05-29T05:35:48;7.60;;;1.50;;
80836;SDS011;70251;60.008;30.404;2023-05-29T05:38:14;10.93;;;1.53;;
80836;SDS011;70251;60.008;30.404;2023-05-29T05:40:39;7.60;;;1.27;;
80836;SDS011;70251;60.008;30.404;2023-05-29T05:43:09;10.45;;;1.15;;
80836;SDS011;70251;60.008;30.404;2023-05-29T05:45:35;7.82;;;1.20;;
80836;SDS011;70251;60.008;30.404;2023-05-29T05:48:05;5.53;;;1.00;;
80836;SDS011;70251;60.008;30.404;2023-05-29T05:50:34;5.93;;;1.30;;
80836;SDS011;70251;60.008;30.404;2023-05-29T05:53:02;8.07;;;1.00;;
80836;SDS011;70251;60.008;30.404;2023-05-29T05:55:31;6.13;;;1.45;;
80836;SDS011;70251;60.008;30.404;2023-05-29T05:57:56;7.67;;;1.30;;
80836;SDS011;70251;60.008;30.404;2023-05-29T06:00:25;7.07;;;1.45;;
80836;SDS011;70251;60.008;30.404;2023-05-29T06:02:51;5.22;;;0.80;;
80836;SDS011;70251;60.008;30.404;2023-05-29T06:05:17;7.97;;;1.57;;
80836;SDS011;70251;60.008;30.404;2023-05-29T06:07:43;6.97;;;1.40;;
80836;SDS011;70251;60.008;30.404;2023-05-29T06:10:08;7.57;;;1.93;;
80836;SDS011;70251;60.008;30.404;2023-05-29T06:12:41;7.53;;;1.50;;
80836;SDS011;70251;60.008;30.404;2023-05-29T06:15:06;7.40;;;1.20;;
80836;SDS011;70251;60.008;30.404;2023-05-29T06:17:32;8.50;;;1.48;;
80836;SDS011;70251;60.008;30.404;2023-05-29T06:20:03;6.95;;;1.60;;
80836;SDS011;70251;60.008;30.404;2023-05-29T06:22:36;7.73;;;1.70;;
80836;SDS011;70251;60.008;30.404;2023-05-29T06:25:03;8.25;;;1.33;;
80836;SDS011;70251;60.008;30.404;2023-05-29T06:27:29;6.57;;;1.52;;
80836;SDS011;70251;60.008;30.404;2023-05-29T06:29:55;7.30;;;1.40;;
80836;SDS011;70251;60.008;30.404;2023-05-29T06:32:20;7.90;;;1.50;;
80836;SDS011;70251;60.008;30.404;2023-05-29T06:34:47;7.57;;;1.63;;
80836;SDS011;70251;60.008;30.404;2023-05-29T06:37:12;10.30;;;2.45;;
80836;SDS011;70251;60.008;30.404;2023-05-29T06:39:38;8.80;;;1.37;;
80836;SDS011;70251;60.008;30.404;2023-05-29T06:42:07;5.72;;;1.35;;
80836;SDS011;70251;60.008;30.404;2023-05-29T06:44:33;6.72;;;1.60;;
80836;SDS011;70251;60.008;30.404;2023-05-29T06:46:59;6.53;;;1.33;;
80836;SDS011;70251;60.008;30.404;2023-05-29T06:49:25;6.90;;;1.27;;
80836;SDS011;70251;60.008;30.404;2023-05-29T06:51:50;6.93;;;1.20;;
80836;SDS011;70251;60.008;30.404;2023-05-29T06:54:16;6.60;;;1.20;;
80836;SDS011;70251;60.008;30.404;2023-05-29T06:56:42;7.10;;;1.00;;
80836;SDS011;70251;60.008;30.404;2023-05-29T06:59:07;6.00;;;1.00;;
80836;SDS011;70251;60.008;30.404;2023-05-29T07:01:33;5.10;;;1.05;;
80836;SDS011;70251;60.008;30.404;2023-05-29T07:03:58;6.23;;;1.17;;
80836;SDS011;70251;60.008;30.404;2023-05-29T07:06:24;5.00;;;0.98;;
80836;SDS011;70251;60.008;30.404;2023-05-29T07:08:49;7.80;;;1.33;;
80836;SDS011;70251;60.008;30.404;2023-05-29T07:11:15;6.17;;;1.00;;
80836;SDS011;70251;60.008;30.404;2023-05-29T07:13:42;5.35;;;1.25;;
80836;SDS011;70251;60.008;30.404;2023-05-29T07:16:07;6.80;;;1.10;;
80836;SDS011;70251;60.008;30.404;2023-05-29T07:18:33;4.70;;;0.87;;
80836;SDS011;70251;60.008;30.404;2023-05-29T07:21:01;7.05;;;1.17;;
80836;SDS011;70251;60.008;30.404;2023-05-29T07:23:26;5.33;;;1.00;;
80836;SDS011;70251;60.008;30.404;2023-05-29T07:25:52;3.67;;;0.80;;
80836;SDS011;70251;60.008;30.404;2023-05-29T07:28:35;7.10;;;1.00;;
80836;SDS011;70251;60.008;30.404;2023-05-29T07:31:05;5.10;;;0.80;;
80836;SDS011;70251;60.008;30.404;2023-05-29T07:33:30;5.20;;;1.27;;
80836;SDS011;70251;60.008;30.404;2023-05-29T07:35:56;10.03;;;1.90;;
80836;SDS011;70251;60.008;30.404;2023-05-29T07:38:21;5.60;;;1.10;;
80836;SDS011;70251;60.008;30.404;2023-05-29T07:40:49;5.50;;;0.80;;
80836;SDS011;70251;60.008;30.404;2023-05-29T07:43:15;5.80;;;1.10;;
80836;SDS011;70251;60.008;30.404;2023-05-29T07:45:40;4.47;;;0.90;;
80836;SDS011;70251;60.008;30.404;2023-05-29T07:48:05;7.33;;;1.03;;
80836;SDS011;70251;60.008;30.404;2023-05-29T07:50:31;4.63;;;0.80;;
80836;SDS011;70251;60.008;30.404;2023-05-29T07:52:56;6.00;;;0.90;;
80836;SDS011;70251;60.008;30.404;2023-05-29T07:55:25;6.07;;;0.80;;
80836;SDS011;70251;60.008;30.404;2023-05-29T07:57:50;3.13;;;0.60;;
80836;SDS011;70251;60.008;30.404;2023-05-29T08:00:16;5.83;;;1.20;;
80836;SDS011;70251;60.008;30.404;2023-05-29T08:02:41;5.10;;;0.70;;
80836;SDS011;70251;60.008;30.404;2023-05-29T08:05:10;6.03;;;0.65;;
80836;SDS011;70251;60.008;30.404;2023-05-29T08:07:36;4.18;;;0.75;;
80836;SDS011;70251;60.008;30.404;2023-05-29T08:10:02;5.20;;;0.73;;
80836;SDS011;70251;60.008;30.404;2023-05-29T08:12:29;6.30;;;0.73;;
80836;SDS011;70251;60.008;30.404;2023-05-29T08:14:54;4.63;;;0.70;;
80836;SDS011;70251;60.008;30.404;2023-05-29T08:17:20;4.63;;;0.70;;
80836;SDS011;70251;60.008;30.404;2023-05-29T08:19:53;5.35;;;0.80;;
80836;SDS011;70251;60.008;30.404;2023-05-29T08:22:18;5.27;;;0.77;;
80836;SDS011;70251;60.008;30.404;2023-05-29T08:24:44;4.32;;;0.65;;
80836;SDS011;70251;60.008;30.404;2023-05-29T08:27:12;3.80;;;0.40;;
80836;SDS011;70251;60.008;30.404;2023-05-29T08:29:38;3.53;;;0.47;;
80836;SDS011;70251;60.008;30.404;2023-05-29T08:32:04;5.60;;;0.53;;
80836;SDS011;70251;60.008;30.404;2023-05-29T08:34:29;2.67;;;0.45;;
80836;SDS011;70251;60.008;30.404;2023-05-29T08:36:58;6.07;;;0.55;;
80836;SDS011;70251;60.008;30.404;2023-05-29T08:39:23;3.30;;;0.60;;
80836;SDS011;70251;60.008;30.404;2023-05-29T08:41:51;4.70;;;0.68;;
80836;SDS011;70251;60.008;30.404;2023-05-29T08:44:36;4.47;;;0.50;;
80836;SDS011;70251;60.008;30.404;2023-05-29T08:47:06;3.03;;;0.50;;
80836;SDS011;70251;60.008;30.404;2023-05-29T08:49:41;3.22;;;0.40;;
80836;SDS011;70251;60.008;30.404;2023-05-29T08:52:15;3.40;;;0.52;;
80836;SDS011;70251;60.008;30.404;2023-05-29T08:54:41;3.97;;;0.60;;
80836;SDS011;70251;60.008;30.404;2023-05-29T08:57:07;5.13;;;0.60;;
80836;SDS011;70251;60.008;30.404;2023-05-29T08:59:33;3.05;;;0.60;;
80836;SDS011;70251;60.008;30.404;2023-05-29T09:01:59;2.65;;;0.30;;
80836;SDS011;70251;60.008;30.404;2023-05-29T09:04:27;3.70;;;0.40;;
80836;SDS011;70251;60.008;30.404;2023-05-29T09:06:55;4.63;;;0.30;;
80836;SDS011;70251;60.008;30.404;2023-05-29T09:09:24;2.33;;;0.30;;
80836;SDS011;70251;60.008;30.404;2023-05-29T09:11:52;1.97;;;0.20;;
80836;SDS011;70251;60.008;30.404;2023-05-29T09:14:34;3.03;;;0.20;;
80836;SDS011;70251;60.008;30.404;2023-05-29T09:17:04;2.45;;;0.20;;
80836;SDS011;70251;60.008;30.404;2023-05-29T09:19:32;1.45;;;0.20;;
80836;SDS011;70251;60.008;30.404;2023-05-29T09:22:03;4.90;;;0.20;;
80836;SDS011;70251;60.008;30.404;2023-05-29T09:24:34;1.23;;;0.27;;
80836;SDS011;70251;60.008;30.404;2023-05-29T09:27:04;2.30;;;0.20;;
80836;SDS011;70251;60.008;30.404;2023-05-29T09:29:33;2.05;;;0.10;;
80836;SDS011;70251;60.008;30.404;2023-05-29T09:32:02;1.30;;;0.20;;
80836;SDS011;70251;60.008;30.404;2023-05-29T09:34:34;3.42;;;0.10;;
80836;SDS011;70251;60.008;30.404;2023-05-29T09:37:01;0.70;;;0.10;;
80836;SDS011;70251;60.008;30.404;2023-05-29T09:39:46;1.10;;;0.10;;
80836;SDS011;70251;60.008;30.404;2023-05-29T09:42:14;1.50;;;0.20;;
80836;SDS011;70251;60.008;30.404;2023-05-29T09:44:44;3.25;;;0.15;;
80836;SDS011;70251;60.008;30.404;2023-05-29T09:47:14;1.05;;;0.10;;
80836;SDS011;70251;60.008;30.404;2023-05-29T09:49:42;1.03;;;0.00;;
80836;SDS011;70251;60.008;30.404;2023-05-29T09:52:15;1.58;;;0.10;;
80836;SDS011;70251;60.008;30.404;2023-05-29T09:54:47;2.28;;;0.10;;
80836;SDS011;70251;60.008;30.404;2023-05-29T09:57:14;1.70;;;0.10;;
80836;SDS011;70251;60.008;30.404;2023-05-29T09:59:45;1.95;;;0.15;;
80836;SDS011;70251;60.008;30.404;2023-05-29T10:02:13;1.43;;;0.10;;
80836;SDS011;70251;60.008;30.404;2023-05-29T10:04:40;1.77;;;0.10;;
80836;SDS011;70251;60.008;30.404;2023-05-29T10:07:10;2.08;;;0.10;;
80836;SDS011;70251;60.008;30.404;2023-05-29T10:09:44;0.98;;;0.10;;
80836;SDS011;70251;60.008;30.404;2023-05-29T10:12:12;1.42;;;0.03;;
80836;SDS011;70251;60.008;30.404;2023-05-29T10:14:38;1.80;;;0.10;;
80836;SDS011;70251;60.008;30.404;2023-05-29T10:17:07;1.75;;;0.10;;
80836;SDS011;70251;60.008;30.404;2023-05-29T10:19:34;1.38;;;0.10;;
80836;SDS011;70251;60.008;30.404;2023-05-29T10:22:02;1.10;;;0.10;;
80836;SDS011;70251;60.008;30.404;2023-05-29T10:24:31;1.65;;;0.10;;
80836;SDS011;70251;60.008;30.404;2023-05-29T10:26:57;2.57;;;0.10;;
80836;SDS011;70251;60.008;30.404;2023-05-29T10:35:33;1.53;;;0.00;;
80836;SDS011;70251;60.008;30.404;2023-05-29T10:38:11;0.70;;;0.00;;
80836;SDS011;70251;60.008;30.404;2023-05-29T10:40:43;7.53;;;0.10;;
80836;SDS011;70251;60.008;30.404;2023-05-29T10:43:20;2.17;;;0.10;;
80836;SDS011;70251;60.008;30.404;2023-05-29T10:45:56;1.95;;;0.00;;
80836;SDS011;70251;60.008;30.404;2023-05-29T10:50:54;1.98;;;0.10;;
80836;SDS011;70251;60.008;30.404;2023-05-29T10:53:24;0.60;;;0.10;;
80836;SDS011;70251;60.008;30.404;2023-05-29T10:55:52;2.75;;;0.10;;
80836;SDS011;70251;60.008;30.404;2023-05-29T10:58:18;2.92;;;0.10;;
80836;SDS011;70251;60.008;30.404;2023-05-29T11:00:46;2.05;;;0.10;;
80836;SDS011;70251;60.008;30.404;2023-05-29T11:03:17;2.10;;;0.10;;
80836;SDS011;70251;60.008;30.404;2023-05-29T11:08:57;7.93;;;0.30;;
80836;SDS011;70251;60.008;30.404;2023-05-29T11:11:32;2.65;;;0.20;;
80836;SDS011;70251;60.008;30.404;2023-05-29T11:14:05;2.30;;;0.30;;
80836;SDS011;70251;60.008;30.404;2023-05-29T11:18:57;2.37;;;0.20;;
80836;SDS011;70251;60.008;30.404;2023-05-29T11:24:22;2.03;;;0.17;;
80836;SDS011;70251;60.008;30.404;2023-05-29T11:26:53;1.40;;;0.10;;
80836;SDS011;70251;60.008;30.404;2023-05-29T11:34:27;1.13;;;0.10;;
80836;SDS011;70251;60.008;30.404;2023-05-29T11:36:56;2.63;;;0.10;;
80836;SDS011;70251;60.008;30.404;2023-05-29T11:39:25;2.38;;;0.10;;
80836;SDS011;70251;60.008;30.404;2023-05-29T11:41:51;1.65;;;0.10;;
80836;SDS011;70251;60.008;30.404;2023-05-29T11:44:17;0.97;;;0.00;;
80836;SDS011;70251;60.008;30.404;2023-05-29T11:46:43;1.85;;;0.00;;
80836;SDS011;70251;60.008;30.404;2023-05-29T11:49:08;2.37;;;0.10;;
80836;SDS011;70251;60.008;30.404;2023-05-29T11:51:34;0.80;;;0.03;;
80836;SDS011;70251;60.008;30.404;2023-05-29T11:53:59;0.50;;;0.00;;
80836;SDS011;70251;60.008;30.404;2023-05-29T11:56:25;3.67;;;0.10;;
80836;SDS011;70251;60.008;30.404;2023-05-29T11:58:51;1.33;;;0.10;;
80836;SDS011;70251;60.008;30.404;2023-05-29T12:01:22;2.25;;;0.10;;
80836;SDS011;70251;60.008;30.404;2023-05-29T12:03:51;1.30;;;0.10;;
80836;SDS011;70251;60.008;30.404;2023-05-29T12:06:36;1.45;;;0.10;;
80836;SDS011;70251;60.008;30.404;2023-05-29T12:09:03;1.63;;;0.10;;
80836;SDS011;70251;60.008;30.404;2023-05-29T12:11:29;3.65;;;0.10;;
80836;SDS011;70251;60.008;30.404;2023-05-29T12:13:56;3.00;;;0.10;;
80836;SDS011;70251;60.008;30.404;2023-05-29T12:16:25;0.60;;;0.10;;
80836;SDS011;70251;60.008;30.404;2023-05-29T12:18:53;2.47;;;0.10;;
80836;SDS011;70251;60.008;30.404;2023-05-29T12:21:23;1.10;;;0.10;;
80836;SDS011;70251;60.008;30.404;2023-05-29T12:23:52;1.23;;;0.00;;
80836;SDS011;70251;60.008;30.404;2023-05-29T12:26:18;3.70;;;0.00;;
80836;SDS011;70251;60.008;30.404;2023-05-29T12:28:50;5.95;;;0.10;;
80836;SDS011;70251;60.008;30.404;2023-05-29T12:31:28;2.95;;;0.10;;
80836;SDS011;70251;60.008;30.404;2023-05-29T12:34:00;0.65;;;0.00;;
80836;SDS011;70251;60.008;30.404;2023-05-29T12:36:26;4.53;;;0.10;;
80836;SDS011;70251;60.008;30.404;2023-05-29T12:38:52;2.17;;;0.10;;
80836;SDS011;70251;60.008;30.404;2023-05-29T12:43:53;1.47;;;0.10;;
80836;SDS011;70251;60.008;30.404;2023-05-29T12:46:25;3.50;;;0.15;;
80836;SDS011;70251;60.008;30.404;2023-05-29T12:48:55;0.60;;;0.10;;
80836;SDS011;70251;60.008;30.404;2023-05-29T12:51:24;1.70;;;0.10;;
80836;SDS011;70251;60.008;30.404;2023-05-29T12:53:51;5.90;;;0.17;;
80836;SDS011;70251;60.008;30.404;2023-05-29T12:56:20;1.07;;;0.20;;
80836;SDS011;70251;60.008;30.404;2023-05-29T12:58:51;1.17;;;0.10;;
80836;SDS011;70251;60.008;30.404;2023-05-29T13:01:17;2.58;;;0.30;;
80836;SDS011;70251;60.008;30.404;2023-05-29T13:03:42;2.47;;;0.10;;
80836;SDS011;70251;60.008;30.404;2023-05-29T13:06:09;5.27;;;0.20;;
80836;SDS011;70251;60.008;30.404;2023-05-29T13:08:38;0.77;;;0.10;;
80836;SDS011;70251;60.008;30.404;2023-05-29T13:11:03;3.58;;;0.10;;
80836;SDS011;70251;60.008;30.404;2023-05-29T13:13:29;2.77;;;0.10;;
80836;SDS011;70251;60.008;30.404;2023-05-29T13:15:57;2.60;;;0.20;;
80836;SDS011;70251;60.008;30.404;2023-05-29T13:18:25;1.47;;;0.20;;
80836;SDS011;70251;60.008;30.404;2023-05-29T13:20:50;3.03;;;0.20;;
80836;SDS011;70251;60.008;30.404;2023-05-29T13:23:16;3.03;;;0.20;;
80836;SDS011;70251;60.008;30.404;2023-05-29T13:25:42;1.42;;;0.25;;
80836;SDS011;70251;60.008;30.404;2023-05-29T13:28:07;1.43;;;0.13;;
80836;SDS011;70251;60.008;30.404;2023-05-29T13:30:33;2.60;;;0.20;;
80836;SDS011;70251;60.008;30.404;2023-05-29T13:32:58;2.60;;;0.47;;
80836;SDS011;70251;60.008;30.404;2023-05-29T13:35:24;1.40;;;0.20;;
80836;SDS011;70251;60.008;30.404;2023-05-29T13:37:49;1.10;;;0.10;;
80836;SDS011;70251;60.008;30.404;2023-05-29T13:40:14;4.67;;;0.10;;
80836;SDS011;70251;60.008;30.404;2023-05-29T13:42:40;1.23;;;0.20;;
80836;SDS011;70251;60.008;30.404;2023-05-29T13:45:06;2.35;;;0.20;;
80836;SDS011;70251;60.008;30.404;2023-05-29T13:47:33;5.03;;;0.20;;
80836;SDS011;70251;60.008;30.404;2023-05-29T13:49:59;4.05;;;0.30;;
80836;SDS011;70251;60.008;30.404;2023-05-29T13:52:25;1.42;;;0.20;;
80836;SDS011;70251;60.008;30.404;2023-05-29T13:54:51;1.00;;;0.10;;
80836;SDS011;70251;60.008;30.404;2023-05-29T13:57:17;1.80;;;0.10;;
80836;SDS011;70251;60.008;30.404;2023-05-29T13:59:48;1.13;;;0.17;;
80836;SDS011;70251;60.008;30.404;2023-05-29T14:02:13;1.20;;;0.10;;
80836;SDS011;70251;60.008;30.404;2023-05-29T14:04:39;1.70;;;0.20;;
80836;SDS011;70251;60.008;30.404;2023-05-29T14:07:04;0.80;;;0.10;;
80836;SDS011;70251;60.008;30.404;2023-05-29T14:09:30;3.57;;;0.20;;
80836;SDS011;70251;60.008;30.404;2023-05-29T14:22:07;13.95;;;0.40;;
80836;SDS011;70251;60.008;30.404;2023-05-29T14:24:35;3.45;;;0.17;;
80836;SDS011;70251;60.008;30.404;2023-05-29T14:27:01;3.00;;;0.10;;
80836;SDS011;70251;60.008;30.404;2023-05-29T14:29:27;1.73;;;0.17;;
80836;SDS011;70251;60.008;30.404;2023-05-29T14:31:52;4.30;;;0.17;;
80836;SDS011;70251;60.008;30.404;2023-05-29T14:34:18;5.38;;;0.22;;
80836;SDS011;70251;60.008;30.404;2023-05-29T14:36:43;3.10;;;0.10;;
80836;SDS011;70251;60.008;30.404;2023-05-29T14:39:11;1.73;;;0.20;;
80836;SDS011;70251;60.008;30.404;2023-05-29T14:41:37;5.03;;;0.20;;
80836;SDS011;70251;60.008;30.404;2023-05-29T14:44:06;1.95;;;0.20;;
80836;SDS011;70251;60.008;30.404;2023-05-29T14:46:31;0.70;;;0.10;;
80836;SDS011;70251;60.008;30.404;2023-05-29T14:49:00;1.48;;;0.20;;
80836;SDS011;70251;60.008;30.404;2023-05-29T14:51:26;4.67;;;0.10;;
80836;SDS011;70251;60.008;30.404;2023-05-29T14:53:55;1.40;;;0.10;;
80836;SDS011;70251;60.008;30.404;2023-05-29T14:56:21;0.83;;;0.10;;
80836;SDS011;70251;60.008;30.404;2023-05-29T14:58:46;1.23;;;0.10;;
80836;SDS011;70251;60.008;30.404;2023-05-29T15:01:15;2.58;;;0.20;;
80836;SDS011;70251;60.008;30.404;2023-05-29T15:03:41;1.70;;;0.10;;
80836;SDS011;70251;60.008;30.404;2023-05-29T15:06:08;1.98;;;0.10;;
80836;SDS011;70251;60.008;30.404;2023-05-29T15:08:35;1.27;;;0.20;;
80836;SDS011;70251;60.008;30.404;2023-05-29T15:11:00;1.57;;;0.20;;
80836;SDS011;70251;60.008;30.404;2023-05-29T15:13:30;1.92;;;0.10;;
80836;SDS011;70251;60.008;30.404;2023-05-29T15:15:59;2.10;;;0.10;;
80836;SDS011;70251;60.008;30.404;2023-05-29T15:18:25;2.00;;;0.10;;
80836;SDS011;70251;60.008;30.404;2023-05-29T15:20:51;0.47;;;0.10;;
80836;SDS011;70251;60.008;30.404;2023-05-29T15:23:18;0.32;;;0.00;;
80836;SDS011;70251;60.008;30.404;2023-05-29T15:25:44;1.37;;;0.10;;